Phobos — 3EYG7 — position and weather

sailwx.info

Track history (hours):
 
Tides and Currents Weather Stations Pressure Air Temp Water Temp Dewpoint Dewpoint Depression Visibility Wind Speed Wind Dir Waves Ship Positions

Phobos

Last reported at 2018-Feb-20 07:01 UTC. Time now 2018-Feb-21 00:04 UTC.
Position N 28°36' W 014°48'.

Length 94 m; draft 5 m.

MMSI: 371574000.

Date/timePositionNaut miles runAvg speedWind from/ knotsBaromVisibWave heightAir tempDewpointWater temp
2018-Feb-20 07:01N 28°36' W 014°48'1 9.0
2018-Feb-20 06:54N 28°36' W 014°49'4 9.1
2018-Feb-20 06:30N 28°33' W 014°52'4 9.0
2018-Feb-20 06:00N 28°30' W 014°56'4 8.9
2018-Feb-20 05:30N 28°27' W 014°59'4 8.8
2018-Feb-20 05:01N 28°24' W 015°03'4 9.0
2018-Feb-20 04:30N 28°21' W 015°07'5 9.2
2018-Feb-20 04:00N 28°18' W 015°11'5 9.3
2018-Feb-20 03:30N 28°14' W 015°14'5 9.4
2018-Feb-20 03:00N 28°11' W 015°18'5 9.0
2018-Feb-20 02:30N 28°08' W 015°22'2 4.9
2018-Feb-20 02:00N 28°08' W 015°25'0 0.6
2018-Feb-20 01:23N 28°08' W 015°24'0 0.0
2018-Feb-20 00:53N 28°09' W 015°24'0 0.0
2018-Feb-20 00:29N 28°09' W 015°24'0 0.0
2018-Feb-19 23:54N 28°08' W 015°24'0 0.0
2018-Feb-19 23:25N 28°08' W 015°24'0 0.0
2018-Feb-19 22:52N 28°08' W 015°24'0 0.0
2018-Feb-19 22:28N 28°08' W 015°24'0 0.0
2018-Feb-19 21:56N 28°08' W 015°24'0 0.0
2018-Feb-19 21:24N 28°08' W 015°24'0 0.0
2018-Feb-19 21:00N 28°08' W 015°24'0 0.0
2018-Feb-19 20:29N 28°08' W 015°24'0 0.0
2018-Feb-19 19:59N 28°08' W 015°24'0 0.0
2018-Feb-19 19:29N 28°08' W 015°24'0 0.0
2018-Feb-19 18:53N 28°08' W 015°24'0 0.0
2018-Feb-19 18:30N 28°08' W 015°24'1 2.5
2018-Feb-19 18:00N 28°07' W 015°24'4 8.9
2018-Feb-19 17:30N 28°06' W 015°20'510.3
2018-Feb-19 17:00N 28°06' W 015°14'4 7.2
2018-Feb-19 16:29N 28°07' W 015°10'510.1
2018-Feb-19 16:00N 28°07' W 015°15'5 9.5
2018-Feb-19 15:30N 28°07' W 015°20'4 7.3
2018-Feb-19 15:00N 28°08' W 015°25'1 1.2
2018-Feb-19 14:19N 28°08' W 015°24'0 0.0
2018-Feb-19 13:56N 28°08' W 015°24'0 0.0
2018-Feb-19 13:29N 28°08' W 015°24'0 0.0
2018-Feb-19 13:00N 28°08' W 015°24'0 0.0
2018-Feb-19 12:30N 28°09' W 015°24'0 0.0
2018-Feb-19 11:53N 28°08' W 015°24'0 0.0
2018-Feb-19 11:23N 28°08' W 015°24'0 0.0
2018-Feb-19 10:59N 28°08' W 015°24'0 0.0
2018-Feb-19 10:30N 28°08' W 015°24'0 0.0
2018-Feb-19 09:55N 28°08' W 015°24'0 0.0
2018-Feb-19 09:28N 28°08' W 015°24'0 0.0
2018-Feb-19 08:59N 28°08' W 015°24'0 0.0
2018-Feb-19 08:21N 28°08' W 015°24'0 0.0
2018-Feb-19 07:59N 28°08' W 015°24'0 0.0
2018-Feb-19 07:26N 28°08' W 015°24'0 0.0
2018-Feb-19 06:56N 28°08' W 015°24'0 0.0
2018-Feb-19 06:29N 28°08' W 015°24'0 0.0
2018-Feb-19 05:59N 28°08' W 015°24'0 0.0
2018-Feb-19 05:22N 28°08' W 015°24'0 0.0
2018-Feb-19 04:53N 28°08' W 015°24'0 0.0
2018-Feb-19 04:30N 28°08' W 015°24'0 0.0
2018-Feb-19 03:57N 28°08' W 015°24'0 0.0
2018-Feb-19 03:27N 28°08' W 015°24'0 0.0
2018-Feb-19 02:57N 28°08' W 015°24'0 0.0
2018-Feb-19 02:28N 28°08' W 015°24'0 0.0
2018-Feb-19 01:59N 28°08' W 015°24'0 0.0
2018-Feb-19 01:14N 28°08' W 015°24'0 0.0
2018-Feb-19 00:59N 28°08' W 015°24'0 0.0
2018-Feb-19 00:26N 28°08' W 015°24'0 0.0
2018-Feb-18 23:56N 28°08' W 015°24'0 0.0
2018-Feb-18 23:26N 28°08' W 015°24'0 0.0
2018-Feb-18 22:54N 28°08' W 015°24'0 0.0
2018-Feb-18 22:30N 28°08' W 015°24'0 0.0
2018-Feb-18 21:54N 28°08' W 015°24'0 0.0
2018-Feb-18 21:24N 28°08' W 015°24'0 0.0
2018-Feb-18 20:56N 28°08' W 015°24'0 0.0
2018-Feb-18 20:27N 28°08' W 015°24'0 0.0
2018-Feb-18 19:48N 28°08' W 015°24'0 0.0
2018-Feb-18 19:26N 28°08' W 015°24'0 0.0
2018-Feb-18 18:56N 28°08' W 015°24'0 0.0
2018-Feb-18 18:22N 28°08' W 015°24'0 0.0
2018-Feb-18 17:56N 28°08' W 015°24'0 0.0
2018-Feb-18 17:28N 28°09' W 015°24'0 0.0
2018-Feb-18 16:56N 28°09' W 015°24'0 0.0
2018-Feb-18 16:28N 28°09' W 015°24'0 0.0
2018-Feb-18 15:50N 28°08' W 015°24'0 0.0
2018-Feb-18 15:28N 28°09' W 015°24'0 0.0
2018-Feb-18 14:49N 28°09' W 015°24'0 0.0
2018-Feb-18 14:30N 28°08' W 015°24'0 0.0
2018-Feb-18 13:55N 28°08' W 015°24'0 0.0
2018-Feb-18 13:30N 28°08' W 015°24'0 0.0
2018-Feb-18 12:59N 28°09' W 015°24'0 0.0
2018-Feb-18 12:20N 28°08' W 015°24'0 0.0
2018-Feb-18 11:55N 28°08' W 015°24'0 0.0
2018-Feb-18 11:30N 28°08' W 015°24'0 0.0
2018-Feb-18 11:00N 28°09' W 015°24'0 0.0
2018-Feb-18 10:28N 28°08' W 015°24'0 0.0
2018-Feb-18 09:57N 28°08' W 015°24'0 0.0
2018-Feb-18 09:29N 28°08' W 015°24'0 0.0
2018-Feb-18 08:50N 28°08' W 015°24'0 0.0
2018-Feb-18 08:29N 28°08' W 015°24'0 0.0
2018-Feb-18 07:55N 28°08' W 015°24'0 0.0
2018-Feb-18 07:24N 28°08' W 015°24'0 0.0
2018-Feb-18 06:54N 28°08' W 015°24'0 0.0
2018-Feb-18 06:30N 28°08' W 015°24'0 0.0
2018-Feb-18 05:57N 28°08' W 015°24'0 0.0
2018-Feb-18 05:27N 28°08' W 015°24'0 0.0
2018-Feb-18 04:56N 28°08' W 015°24'0 0.0
2018-Feb-18 04:29N 28°08' W 015°24'0 0.0
2018-Feb-18 04:00N 28°08' W 015°24'0 0.0
2018-Feb-18 03:21N 28°08' W 015°24'0 0.0
2018-Feb-18 02:58N 28°08' W 015°24'0 0.0
2018-Feb-18 02:16N 28°08' W 015°24'0 0.0
2018-Feb-18 01:58N 28°08' W 015°24'0 0.0
2018-Feb-18 01:23N 28°09' W 015°24'0 0.0
2018-Feb-18 00:59N 28°09' W 015°24'0 0.0
2018-Feb-18 00:24N 28°08' W 015°24'0 0.0
2018-Feb-17 23:58N 28°08' W 015°24'0 0.0
2018-Feb-17 23:30N 28°08' W 015°24'0 0.0
2018-Feb-17 23:00N 28°08' W 015°24'0 0.0
2018-Feb-17 22:30N 28°08' W 015°24'0 0.0
2018-Feb-17 21:58N 28°08' W 015°24'0 0.0
2018-Feb-17 21:17N 28°08' W 015°24'0 0.0
2018-Feb-17 20:53N 28°08' W 015°24'0 0.0
2018-Feb-17 20:26N 28°08' W 015°24'0 0.0
2018-Feb-17 19:55N 28°08' W 015°24'0 0.0
2018-Feb-17 19:25N 28°08' W 015°24'0 0.0
2018-Feb-17 18:54N 28°08' W 015°24'0 0.0
2018-Feb-17 18:30N 28°08' W 015°24'0 0.0
2018-Feb-17 17:54N 28°08' W 015°24'0 0.0
2018-Feb-17 17:24N 28°08' W 015°24'0 0.0
2018-Feb-17 16:50N 28°09' W 015°24'0 0.0
2018-Feb-17 16:24N 28°08' W 015°24'0 0.0
2018-Feb-17 15:58N 28°08' W 015°24'0 0.0
2018-Feb-17 15:27N 28°08' W 015°24'0 0.0
2018-Feb-17 14:57N 28°09' W 015°24'0 0.0
2018-Feb-17 14:27N 28°09' W 015°24'0 0.0
2018-Feb-17 13:57N 28°09' W 015°24'0 0.0
2018-Feb-17 13:27N 28°09' W 015°24'0 0.0
2018-Feb-17 13:00N 28°09' W 015°24'0 0.0
2018-Feb-17 12:19N 28°08' W 015°24'0 0.0
2018-Feb-17 11:58N 28°08' W 015°24'0 0.0
2018-Feb-17 11:28N 28°08' W 015°24'0 0.0
2018-Feb-17 11:00N 28°09' W 015°24'0 0.0
2018-Feb-17 10:25N 28°08' W 015°24'0 0.0
2018-Feb-17 09:58N 28°08' W 015°24'0 0.0
2018-Feb-17 09:26N 28°08' W 015°24'0 0.0
2018-Feb-17 08:53N 28°09' W 015°24'0 0.0
2018-Feb-17 08:23N 28°09' W 015°24'0 0.0
2018-Feb-17 07:53N 28°08' W 015°24'0 0.0
2018-Feb-17 07:26N 28°08' W 015°24'0 0.0
2018-Feb-17 06:56N 28°08' W 015°24'0 0.0
2018-Feb-17 06:26N 28°08' W 015°24'0 0.0
2018-Feb-17 06:00N 28°08' W 015°24'0 0.0
2018-Feb-17 05:24N 28°08' W 015°24'0 0.0
2018-Feb-17 05:00N 28°08' W 015°24'0 0.0
2018-Feb-17 04:28N 28°08' W 015°24'0 0.0
2018-Feb-17 03:58N 28°08' W 015°24'0 0.0
2018-Feb-17 03:28N 28°08' W 015°24'0 0.0
2018-Feb-17 02:49N 28°08' W 015°24'0 0.0
2018-Feb-17 02:19N 28°08' W 015°24'0 0.0
2018-Feb-17 01:58N 28°08' W 015°24'0 0.0
2018-Feb-17 01:26N 28°09' W 015°24'0 0.0
2018-Feb-17 01:00N 28°08' W 015°24'0 0.0
2018-Feb-17 00:30N 28°09' W 015°24'0 0.0
2018-Feb-17 00:00N 28°08' W 015°24'0 0.0
2018-Feb-16 23:25N 28°09' W 015°24'0 0.0
2018-Feb-16 22:51N 28°09' W 015°24'0 0.0
2018-Feb-16 22:25N 28°08' W 015°24'0 0.0
2018-Feb-16 21:54N 28°08' W 015°24'0 0.0
2018-Feb-16 21:26N 28°08' W 015°24'0 0.0
2018-Feb-16 21:00N 28°08' W 015°24'0 0.0
2018-Feb-16 20:28N 28°08' W 015°24'0 0.0
2018-Feb-16 19:58N 28°09' W 015°24'0 0.0
2018-Feb-16 19:28N 28°09' W 015°24'0 0.0
2018-Feb-16 18:59N 28°08' W 015°24'0 0.0
2018-Feb-16 18:30N 28°08' W 015°24'0 0.0
2018-Feb-16 17:53N 28°08' W 015°24'0 0.0
2018-Feb-16 17:26N 28°09' W 015°24'0 0.0
2018-Feb-16 16:56N 28°09' W 015°24'0 0.0
2018-Feb-16 16:23N 28°08' W 015°24'0 0.0
2018-Feb-16 16:00N 28°08' W 015°24'0 0.0
2018-Feb-16 15:26N 28°09' W 015°24'0 0.0
2018-Feb-16 14:55N 28°08' W 015°24'0 0.0
2018-Feb-16 14:21N 28°08' W 015°24'0 0.0
2018-Feb-16 13:58N 28°08' W 015°24'0 0.0
2018-Feb-16 13:19N 28°09' W 015°24'0 0.0
2018-Feb-16 12:58N 28°09' W 015°24'0 0.0
2018-Feb-16 12:30N 28°08' W 015°24'0 0.0
2018-Feb-16 11:59N 28°08' W 015°24'0 0.0
2018-Feb-16 11:29N 28°09' W 015°24'0 0.0
2018-Feb-16 10:54N 28°08' W 015°24'0 0.0
2018-Feb-16 10:22N 28°08' W 015°24'0 0.0
2018-Feb-16 09:49N 28°08' W 015°24'0 0.0
2018-Feb-16 09:22N 28°08' W 015°24'0 0.0
2018-Feb-16 08:59N 28°08' W 015°24'0 0.0
2018-Feb-16 08:29N 28°09' W 015°24'0 0.0
2018-Feb-16 07:50N 28°08' W 015°24'0 0.0
2018-Feb-16 07:25N 28°08' W 015°24'0 0.0
2018-Feb-16 06:55N 28°08' W 015°24'0 0.0
2018-Feb-16 06:24N 28°08' W 015°24'0 0.0
2018-Feb-16 05:53N 28°08' W 015°24'0 0.0
2018-Feb-16 05:18N 28°08' W 015°24'0 0.0
2018-Feb-16 04:49N 28°08' W 015°24'0 0.0
2018-Feb-16 04:29N 28°08' W 015°24'0 0.0
2018-Feb-16 03:52N 28°08' W 015°24'0 0.0
2018-Feb-16 03:22N 28°08' W 015°24'0 0.0
2018-Feb-16 02:59N 28°08' W 015°24'0 0.0
2018-Feb-16 02:29N 28°08' W 015°24'0 0.0
2018-Feb-16 01:58N 28°08' W 015°24'0 0.0
2018-Feb-16 01:23N 28°08' W 015°24'0 0.0
2018-Feb-16 00:51N 28°08' W 015°24'0 0.0
2018-Feb-16 00:24N 28°08' W 015°24'0 0.0
2018-Feb-15 23:54N 28°08' W 015°24'0 0.0
2018-Feb-15 23:10N 28°09' W 015°24'0 0.0
2018-Feb-15 22:57N 28°09' W 015°24'0 0.0
2018-Feb-15 22:19N 28°08' W 015°24'0 0.0
2018-Feb-15 21:58N 28°08' W 015°24'0 0.0
2018-Feb-15 21:22N 28°08' W 015°24'0 0.0
2018-Feb-15 20:52N 28°09' W 015°24'0 0.0
2018-Feb-15 20:22N 28°09' W 015°24'0 0.0
2018-Feb-15 19:57N 28°09' W 015°24'0 0.0
2018-Feb-15 19:28N 28°08' W 015°24'0 0.0
2018-Feb-15 18:58N 28°08' W 015°24'0 0.0
2018-Feb-15 18:30N 28°08' W 015°24'0 0.0
2018-Feb-15 18:00N 28°09' W 015°24'0 0.0
2018-Feb-15 17:26N 28°09' W 015°24'0 0.0
2018-Feb-15 16:58N 28°09' W 015°24'0 0.0
2018-Feb-15 16:28N 28°09' W 015°24'0 0.0
2018-Feb-15 15:49N 28°08' W 015°24'0 0.0
2018-Feb-15 15:25N 28°09' W 015°24'0 0.0
2018-Feb-15 15:00N 28°08' W 015°24'0 0.0
2018-Feb-15 14:29N 28°09' W 015°24'0 0.0
2018-Feb-15 13:57N 28°09' W 015°24'0 0.0
2018-Feb-15 13:27N 28°09' W 015°24'0 0.0
2018-Feb-15 12:47N 28°09' W 015°24'0 0.0
2018-Feb-15 12:22N 28°08' W 015°24'0 0.0
2018-Feb-15 11:56N 28°08' W 015°24'0 0.0
2018-Feb-15 11:27N 28°08' W 015°24'0 0.0
2018-Feb-15 10:59N 28°08' W 015°24'0 0.0
2018-Feb-15 10:25N 28°08' W 015°24'0 0.0
2018-Feb-15 09:54N 28°08' W 015°24'0 0.0
2018-Feb-15 09:29N 28°08' W 015°24'0 0.0
2018-Feb-15 08:53N 28°08' W 015°24'0 0.0
2018-Feb-15 08:30N 28°08' W 015°24'0 0.0
2018-Feb-15 08:00N 28°08' W 015°24'0 0.0
2018-Feb-15 07:23N 28°08' W 015°24'0 0.0
2018-Feb-15 06:52N 28°08' W 015°24'0 0.0
2018-Feb-15 06:23N 28°08' W 015°24'0 0.0
2018-Feb-15 05:58N 28°08' W 015°24'0 0.0
2018-Feb-15 05:29N 28°08' W 015°24'0 0.0
2018-Feb-15 04:59N 28°08' W 015°24'0 0.0
2018-Feb-15 04:21N 28°08' W 015°24'0 0.0
2018-Feb-15 03:57N 28°08' W 015°24'0 0.0
2018-Feb-15 03:29N 28°08' W 015°24'0 0.0
2018-Feb-15 03:00N 28°08' W 015°24'0 0.0
2018-Feb-15 02:27N 28°08' W 015°24'0 0.0
2018-Feb-15 02:00N 28°08' W 015°24'0 0.0
2018-Feb-15 01:24N 28°08' W 015°24'0 0.0
2018-Feb-15 00:59N 28°08' W 015°24'0 0.0
2018-Feb-15 00:17N 28°08' W 015°24'0 0.0
2018-Feb-15 00:00N 28°08' W 015°24'0 0.0
2018-Feb-14 23:27N 28°08' W 015°24'0 0.0
2018-Feb-14 22:47N 28°08' W 015°24'0 0.0
2018-Feb-14 22:29N 28°08' W 015°24'0 0.0
2018-Feb-14 21:51N 28°08' W 015°24'0 0.0
2018-Feb-14 21:29N 28°08' W 015°24'0 0.0
2018-Feb-14 20:49N 28°08' W 015°24'0 0.2
2018-Feb-14 20:30N 28°08' W 015°25'1 2.8
2018-Feb-14 20:00N 28°07' W 015°24'1 1.5
2018-Feb-14 19:30N 28°07' W 015°23'2 4.8
2018-Feb-14 19:00N 28°06' W 015°21'4 7.2
2018-Feb-14 18:31N 28°03' W 015°18'0 0.7
2018-Feb-14 18:00N 28°03' W 015°18'0 1.0
2018-Feb-14 17:30N 28°04' W 015°18'0 0.2
2018-Feb-14 17:00N 28°04' W 015°18'4 8.4
2018-Feb-14 16:31N 28°00' W 015°15'3 6.4
2018-Feb-14 16:00N 27°58' W 015°17'0 0.8
2018-Feb-14 15:31N 27°58' W 015°17'1 2.8
2018-Feb-14 15:00N 27°59' W 015°18'5 9.6
2018-Feb-14 14:31N 28°04' W 015°17'2 3.5
2018-Feb-14 14:00N 28°05' W 015°15'3 6.5
2018-Feb-14 13:31N 28°05' W 015°12'1 1.3
2018-Feb-14 13:01N 28°06' W 015°11'4 8.3
2018-Feb-14 12:31N 28°06' W 015°16'0 0.8
2018-Feb-14 12:01N 28°06' W 015°17'0 0.6
2018-Feb-14 11:30N 28°06' W 015°16'1 2.0
2018-Feb-14 11:00N 28°06' W 015°17'3 5.9
2018-Feb-14 10:30N 28°06' W 015°21'3 6.1
2018-Feb-14 10:00N 28°07' W 015°24'1 2.7
2018-Feb-14 09:28N 28°09' W 015°24'0 0.0
2018-Feb-14 08:56N 28°09' W 015°24'0 0.0
2018-Feb-14 08:30N 28°09' W 015°24'0 0.0
2018-Feb-14 07:58N 28°09' W 015°24'0 0.0
2018-Feb-14 07:28N 28°09' W 015°24'0 0.0
2018-Feb-14 06:59N 28°09' W 015°24'0 0.0
2018-Feb-14 06:25N 28°08' W 015°24'0 0.0
2018-Feb-14 05:55N 28°09' W 015°24'0 0.0
2018-Feb-14 05:25N 28°09' W 015°24'0 0.0
2018-Feb-14 04:50N 28°09' W 015°24'0 0.0
2018-Feb-14 04:23N 28°09' W 015°24'0 0.0
2018-Feb-14 03:53N 28°09' W 015°24'0 0.0
2018-Feb-14 03:24N 28°09' W 015°24'0 0.0
2018-Feb-14 03:00N 28°09' W 015°24'0 0.0
2018-Feb-14 02:25N 28°09' W 015°24'0 0.0
2018-Feb-14 01:58N 28°09' W 015°24'0 0.0
2018-Feb-14 01:28N 28°09' W 015°24'0 0.0
2018-Feb-14 00:57N 28°09' W 015°24'0 0.0
2018-Feb-14 00:28N 28°09' W 015°24'0 0.0
2018-Feb-13 23:56N 28°09' W 015°24'0 0.0
2018-Feb-13 23:26N 28°09' W 015°24'0 0.0
2018-Feb-13 22:56N 28°08' W 015°24'0 0.0
2018-Feb-13 22:29N 28°09' W 015°24'0 0.0
2018-Feb-13 21:58N 28°09' W 015°24'0 0.0
2018-Feb-13 21:25N 28°09' W 015°24'0 0.0
2018-Feb-13 20:53N 28°09' W 015°24'0 0.0
2018-Feb-13 20:23N 28°09' W 015°24'0 0.0
2018-Feb-13 20:00N 28°09' W 015°24'0 0.0
2018-Feb-13 19:25N 28°09' W 015°24'0 0.0
2018-Feb-13 18:48N 28°09' W 015°24'0 0.0
2018-Feb-13 18:30N 28°09' W 015°24'0 0.0
2018-Feb-13 18:00N 28°09' W 015°24'0 0.0
2018-Feb-13 17:21N 28°09' W 015°24'0 0.0
2018-Feb-13 16:54N 28°09' W 015°24'0 0.0
2018-Feb-13 16:25N 28°09' W 015°24'0 0.0
2018-Feb-13 16:00N 28°09' W 015°24'0 0.0
2018-Feb-13 15:29N 28°09' W 015°24'0 0.0
2018-Feb-13 14:59N 28°09' W 015°24'0 0.0
2018-Feb-13 14:26N 28°09' W 015°24'0 0.0
2018-Feb-13 13:58N 28°09' W 015°24'0 0.0
2018-Feb-13 13:28N 28°09' W 015°24'0 0.0
2018-Feb-13 12:57N 28°09' W 015°24'0 0.0
2018-Feb-13 12:30N 28°08' W 015°24'0 0.0
2018-Feb-13 11:53N 28°09' W 015°24'0 0.0
2018-Feb-13 11:23N 28°09' W 015°24'0 0.0
2018-Feb-13 10:59N 28°09' W 015°24'0 0.0
2018-Feb-13 10:29N 28°09' W 015°24'0 0.0
2018-Feb-13 09:58N 28°09' W 015°24'0 0.0
2018-Feb-13 09:29N 28°09' W 015°24'0 0.0
2018-Feb-13 08:53N 28°09' W 015°24'0 0.0
2018-Feb-13 08:30N 28°09' W 015°24'0 0.0
2018-Feb-13 08:00N 28°09' W 015°24'0 0.0
2018-Feb-13 07:30N 28°09' W 015°24'0 0.0
2018-Feb-13 06:58N 28°09' W 015°24'0 0.0
2018-Feb-13 06:30N 28°09' W 015°24'0 0.0
2018-Feb-13 05:58N 28°09' W 015°24'0 0.0
2018-Feb-13 05:28N 28°09' W 015°24'0 0.0
2018-Feb-13 04:59N 28°09' W 015°24'0 0.0
2018-Feb-13 04:28N 28°09' W 015°24'0 0.0
2018-Feb-13 03:56N 28°09' W 015°24'0 0.0
2018-Feb-13 03:29N 28°09' W 015°24'0 0.0
2018-Feb-13 02:54N 28°09' W 015°24'0 0.0
2018-Feb-13 02:29N 28°09' W 015°24'0 0.0
2018-Feb-13 01:58N 28°09' W 015°24'0 0.0
2018-Feb-13 01:30N 28°09' W 015°24'0 0.0
2018-Feb-13 01:00N 28°09' W 015°24'0 0.0
2018-Feb-13 00:28N 28°09' W 015°24'0 0.0
2018-Feb-12 23:58N 28°09' W 015°24'0 0.0
2018-Feb-12 23:30N 28°09' W 015°24'0 0.0
2018-Feb-12 22:58N 28°09' W 015°24'0 0.0
2018-Feb-12 22:28N 28°09' W 015°24'0 0.0
2018-Feb-12 21:58N 28°09' W 015°24'0 0.0
2018-Feb-12 21:26N 28°09' W 015°24'0 0.0
2018-Feb-12 21:00N 28°09' W 015°24'0 0.0
2018-Feb-12 20:27N 28°09' W 015°24'0 0.0
2018-Feb-12 19:59N 28°09' W 015°24'0 0.0
2018-Feb-12 19:30N 28°09' W 015°24'0 0.0
2018-Feb-12 19:00N 28°09' W 015°24'0 0.0
2018-Feb-12 18:30N 28°09' W 015°24'0 0.0
2018-Feb-12 17:58N 28°09' W 015°24'0 0.0
2018-Feb-12 17:29N 28°09' W 015°24'0 0.0
2018-Feb-12 16:54N 28°09' W 015°24'0 0.0
2018-Feb-12 16:28N 28°09' W 015°24'0 0.0
2018-Feb-12 16:00N 28°09' W 015°24'0 0.0
2018-Feb-12 15:29N 28°09' W 015°24'0 0.0
2018-Feb-12 14:59N 28°09' W 015°24'0 0.0
2018-Feb-12 14:30N 28°09' W 015°24'0 0.0
2018-Feb-12 13:53N 28°09' W 015°24'0 0.0
2018-Feb-12 13:28N 28°09' W 015°24'0 0.0
2018-Feb-12 13:00N 28°09' W 015°24'0 0.0
2018-Feb-12 12:30N 28°08' W 015°24'0 0.0
2018-Feb-12 12:00N 28°09' W 015°24'0 0.0
2018-Feb-12 11:29N 28°09' W 015°24'0 0.0
2018-Feb-12 10:55N 28°09' W 015°24'0 0.0
2018-Feb-12 10:29N 28°09' W 015°24'0 0.0
2018-Feb-12 09:58N 28°08' W 015°24'0 0.0
2018-Feb-12 09:29N 28°09' W 015°24'0 0.0
2018-Feb-12 08:49N 28°09' W 015°24'0 0.0
2018-Feb-12 08:28N 28°09' W 015°24'0 0.0
2018-Feb-12 07:53N 28°09' W 015°24'0 0.0
2018-Feb-12 07:22N 28°09' W 015°24'0 0.0
2018-Feb-12 06:52N 28°08' W 015°24'0 0.0
2018-Feb-12 06:14N 28°09' W 015°24'0 0.0
2018-Feb-12 05:57N 28°09' W 015°24'0 0.0
2018-Feb-12 05:28N 28°09' W 015°24'0 0.0
2018-Feb-12 04:59N 28°09' W 015°24'0 0.0
2018-Feb-12 04:24N 28°09' W 015°24'0 0.0
2018-Feb-12 03:59N 28°09' W 015°24'0 0.0
2018-Feb-12 03:29N 28°09' W 015°24'0 0.0
2018-Feb-12 02:54N 28°09' W 015°24'0 0.0
2018-Feb-12 02:24N 28°09' W 015°24'0 0.0
2018-Feb-12 01:55N 28°09' W 015°24'0 0.0
2018-Feb-12 01:18N 28°09' W 015°24'0 0.0
2018-Feb-12 01:00N 28°09' W 015°24'0 0.0
2018-Feb-12 00:30N 28°09' W 015°24'0 0.0
2018-Feb-11 23:59N 28°09' W 015°24'0 0.0
2018-Feb-11 23:30N 28°09' W 015°24'0 0.0
2018-Feb-11 22:54N 28°09' W 015°24'0 0.0
2018-Feb-11 22:26N 28°09' W 015°24'0 0.0
2018-Feb-11 21:59N 28°09' W 015°24'0 0.0
2018-Feb-11 21:24N 28°09' W 015°24'0 0.0
2018-Feb-11 20:54N 28°09' W 015°24'0 0.0
2018-Feb-11 20:25N 28°09' W 015°24'0 0.0
2018-Feb-11 20:00N 28°09' W 015°24'0 0.0
2018-Feb-11 19:29N 28°09' W 015°24'0 0.0
2018-Feb-11 18:59N 28°09' W 015°24'0 0.0
2018-Feb-11 18:29N 28°09' W 015°24'0 0.0
2018-Feb-11 17:55N 28°09' W 015°24'0 0.0
2018-Feb-11 17:30N 28°09' W 015°24'0 0.0
2018-Feb-11 17:00N 28°09' W 015°24'0 0.0
2018-Feb-11 16:30N 28°09' W 015°24'0 0.0
2018-Feb-11 16:00N 28°09' W 015°24'0 0.0
2018-Feb-11 15:16N 28°09' W 015°24'0 0.0
2018-Feb-11 14:59N 28°09' W 015°24'0 0.0
2018-Feb-11 14:29N 28°09' W 015°24'0 0.0
2018-Feb-11 13:50N 28°09' W 015°24'0 0.0
2018-Feb-11 13:20N 28°09' W 015°24'0 0.0
2018-Feb-11 12:49N 28°09' W 015°24'0 0.0
2018-Feb-11 12:24N 28°09' W 015°24'0 0.0
2018-Feb-11 11:55N 28°09' W 015°24'0 0.0
2018-Feb-11 11:22N 28°09' W 015°24'0 0.0
2018-Feb-11 10:50N 28°09' W 015°24'0 0.0
2018-Feb-11 10:27N 28°09' W 015°24'0 0.0
2018-Feb-11 09:56N 28°09' W 015°24'0 0.0
2018-Feb-11 09:26N 28°09' W 015°24'0 0.0
2018-Feb-11 08:56N 28°09' W 015°24'0 0.0
2018-Feb-11 08:26N 28°09' W 015°24'0 0.0
2018-Feb-11 07:56N 28°09' W 015°24'0 0.0
2018-Feb-11 07:26N 28°09' W 015°24'0 0.0
2018-Feb-11 06:35N 28°09' W 015°24'0 0.0
2018-Feb-11 06:25N 28°09' W 015°24'0 0.0
2018-Feb-11 06:00N 28°09' W 015°24'0 0.0
2018-Feb-11 05:23N 28°09' W 015°24'0 0.0
2018-Feb-11 04:53N 28°09' W 015°24'0 0.0
2018-Feb-11 04:23N 28°09' W 015°24'0 0.0
2018-Feb-11 03:53N 28°09' W 015°24'0 0.0
2018-Feb-11 03:12N 28°09' W 015°24'0 0.0
2018-Feb-11 02:57N 28°09' W 015°24'0 0.0
2018-Feb-11 02:27N 28°09' W 015°24'0 0.0
2018-Feb-11 01:56N 28°09' W 015°24'0 0.0
2018-Feb-11 01:27N 28°09' W 015°24'0 0.0
2018-Feb-11 00:57N 28°09' W 015°24'0 0.0
2018-Feb-11 00:30N 28°09' W 015°24'0 0.0
2018-Feb-11 00:00N 28°09' W 015°24'0 0.0
2018-Feb-10 23:29N 28°09' W 015°24'0 0.0
2018-Feb-10 22:49N 28°09' W 015°24'0 0.0
2018-Feb-10 22:19N 28°09' W 015°24'0 0.0
2018-Feb-10 21:39N 28°09' W 015°24'0 0.0
2018-Feb-10 21:21N 28°09' W 015°24'0 0.0
2018-Feb-10 20:59N 28°09' W 015°24'0 0.0
2018-Feb-10 20:27N 28°09' W 015°24'0 0.0
2018-Feb-10 19:57N 28°09' W 015°24'0 0.0
2018-Feb-10 19:25N 28°09' W 015°24'0 0.0
2018-Feb-10 19:00N 28°09' W 015°24'0 0.0
2018-Feb-10 18:29N 28°09' W 015°24'0 0.0
2018-Feb-10 18:00N 28°09' W 015°24'0 0.0
2018-Feb-10 17:28N 28°09' W 015°24'0 0.0
2018-Feb-10 17:00N 28°09' W 015°24'0 0.0
2018-Feb-10 16:25N 28°09' W 015°24'0 0.0
2018-Feb-10 15:58N 28°09' W 015°24'0 0.0
2018-Feb-10 15:19N 28°09' W 015°24'0 0.0
2018-Feb-10 15:00N 28°09' W 015°24'0 0.0
2018-Feb-10 14:27N 28°09' W 015°24'0 0.0
2018-Feb-10 13:52N 28°09' W 015°24'0 0.0
2018-Feb-10 13:22N 28°09' W 015°24'0 0.0
2018-Feb-10 12:48N 28°09' W 015°24'0 0.0
2018-Feb-10 12:29N 28°09' W 015°24'0 0.0
2018-Feb-10 11:59N 28°09' W 015°24'0 0.0
2018-Feb-10 11:27N 28°09' W 015°24'0 0.0
2018-Feb-10 11:00N 28°09' W 015°24'0 0.0
2018-Feb-10 10:28N 28°09' W 015°24'0 0.0
2018-Feb-10 09:55N 28°09' W 015°24'0 0.0
2018-Feb-10 09:30N 28°09' W 015°24'0 0.0
2018-Feb-10 09:00N 28°09' W 015°24'0 0.0
2018-Feb-10 08:29N 28°09' W 015°24'0 0.0
2018-Feb-10 07:55N 28°09' W 015°24'0 0.0
2018-Feb-10 07:22N 28°09' W 015°24'  
Track history (hours):
 
Tides and Currents Weather Stations Pressure Air Temp Water Temp Dewpoint Dewpoint Depression Visibility Wind Speed Wind Dir Waves Ship Positions

Phobos

Last reported at 2018-Feb-20 07:01 UTC. Time now 2018-Feb-21 00:04 UTC.
Position N 28°36' W 014°48'.

Length 94 m; draft 5 m.

MMSI: 371574000.

Date/timePositionNaut miles runAvg speedWind from/ knotsBaromVisibWave heightAir tempDewpointWater temp
2018-Feb-20 07:01N 28°36' W 014°48'1 9.0
2018-Feb-20 06:54N 28°36' W 014°49'4 9.1
2018-Feb-20 06:30N 28°33' W 014°52'4 9.0
2018-Feb-20 06:00N 28°30' W 014°56'4 8.9
2018-Feb-20 05:30N 28°27' W 014°59'4 8.8
2018-Feb-20 05:01N 28°24' W 015°03'4 9.0
2018-Feb-20 04:30N 28°21' W 015°07'5 9.2
2018-Feb-20 04:00N 28°18' W 015°11'5 9.3
2018-Feb-20 03:30N 28°14' W 015°14'5 9.4
2018-Feb-20 03:00N 28°11' W 015°18'5 9.0
2018-Feb-20 02:30N 28°08' W 015°22'2 4.9
2018-Feb-20 02:00N 28°08' W 015°25'0 0.6
2018-Feb-20 01:23N 28°08' W 015°24'0 0.0
2018-Feb-20 00:53N 28°09' W 015°24'0 0.0
2018-Feb-20 00:29N 28°09' W 015°24'0 0.0
2018-Feb-19 23:54N 28°08' W 015°24'0 0.0
2018-Feb-19 23:25N 28°08' W 015°24'0 0.0
2018-Feb-19 22:52N 28°08' W 015°24'0 0.0
2018-Feb-19 22:28N 28°08' W 015°24'0 0.0
2018-Feb-19 21:56N 28°08' W 015°24'0 0.0
2018-Feb-19 21:24N 28°08' W 015°24'0 0.0
2018-Feb-19 21:00N 28°08' W 015°24'0 0.0
2018-Feb-19 20:29N 28°08' W 015°24'0 0.0
2018-Feb-19 19:59N 28°08' W 015°24'0 0.0
2018-Feb-19 19:29N 28°08' W 015°24'0 0.0
2018-Feb-19 18:53N 28°08' W 015°24'0 0.0
2018-Feb-19 18:30N 28°08' W 015°24'1 2.5
2018-Feb-19 18:00N 28°07' W 015°24'4 8.9
2018-Feb-19 17:30N 28°06' W 015°20'510.3
2018-Feb-19 17:00N 28°06' W 015°14'4 7.2
2018-Feb-19 16:29N 28°07' W 015°10'510.1
2018-Feb-19 16:00N 28°07' W 015°15'5 9.5
2018-Feb-19 15:30N 28°07' W 015°20'4 7.3
2018-Feb-19 15:00N 28°08' W 015°25'1 1.2
2018-Feb-19 14:19N 28°08' W 015°24'0 0.0
2018-Feb-19 13:56N 28°08' W 015°24'0 0.0
2018-Feb-19 13:29N 28°08' W 015°24'0 0.0
2018-Feb-19 13:00N 28°08' W 015°24'0 0.0
2018-Feb-19 12:30N 28°09' W 015°24'0 0.0
2018-Feb-19 11:53N 28°08' W 015°24'0 0.0
2018-Feb-19 11:23N 28°08' W 015°24'0 0.0
2018-Feb-19 10:59N 28°08' W 015°24'0 0.0
2018-Feb-19 10:30N 28°08' W 015°24'0 0.0
2018-Feb-19 09:55N 28°08' W 015°24'0 0.0
2018-Feb-19 09:28N 28°08' W 015°24'0 0.0
2018-Feb-19 08:59N 28°08' W 015°24'0 0.0
2018-Feb-19 08:21N 28°08' W 015°24'0 0.0
2018-Feb-19 07:59N 28°08' W 015°24'0 0.0
2018-Feb-19 07:26N 28°08' W 015°24'0 0.0
2018-Feb-19 06:56N 28°08' W 015°24'0 0.0
2018-Feb-19 06:29N 28°08' W 015°24'0 0.0
2018-Feb-19 05:59N 28°08' W 015°24'0 0.0
2018-Feb-19 05:22N 28°08' W 015°24'0 0.0
2018-Feb-19 04:53N 28°08' W 015°24'0 0.0
2018-Feb-19 04:30N 28°08' W 015°24'0 0.0
2018-Feb-19 03:57N 28°08' W 015°24'0 0.0
2018-Feb-19 03:27N 28°08' W 015°24'0 0.0
2018-Feb-19 02:57N 28°08' W 015°24'0 0.0
2018-Feb-19 02:28N 28°08' W 015°24'0 0.0
2018-Feb-19 01:59N 28°08' W 015°24'0 0.0
2018-Feb-19 01:14N 28°08' W 015°24'0 0.0
2018-Feb-19 00:59N 28°08' W 015°24'0 0.0
2018-Feb-19 00:26N 28°08' W 015°24'0 0.0
2018-Feb-18 23:56N 28°08' W 015°24'0 0.0
2018-Feb-18 23:26N 28°08' W 015°24'0 0.0
2018-Feb-18 22:54N 28°08' W 015°24'0 0.0
2018-Feb-18 22:30N 28°08' W 015°24'0 0.0
2018-Feb-18 21:54N 28°08' W 015°24'0 0.0
2018-Feb-18 21:24N 28°08' W 015°24'0 0.0
2018-Feb-18 20:56N 28°08' W 015°24'0 0.0
2018-Feb-18 20:27N 28°08' W 015°24'0 0.0
2018-Feb-18 19:48N 28°08' W 015°24'0 0.0
2018-Feb-18 19:26N 28°08' W 015°24'0 0.0
2018-Feb-18 18:56N 28°08' W 015°24'0 0.0
2018-Feb-18 18:22N 28°08' W 015°24'0 0.0
2018-Feb-18 17:56N 28°08' W 015°24'0 0.0
2018-Feb-18 17:28N 28°09' W 015°24'0 0.0
2018-Feb-18 16:56N 28°09' W 015°24'0 0.0
2018-Feb-18 16:28N 28°09' W 015°24'0 0.0
2018-Feb-18 15:50N 28°08' W 015°24'0 0.0
2018-Feb-18 15:28N 28°09' W 015°24'0 0.0
2018-Feb-18 14:49N 28°09' W 015°24'0 0.0
2018-Feb-18 14:30N 28°08' W 015°24'0 0.0
2018-Feb-18 13:55N 28°08' W 015°24'0 0.0
2018-Feb-18 13:30N 28°08' W 015°24'0 0.0
2018-Feb-18 12:59N 28°09' W 015°24'0 0.0
2018-Feb-18 12:20N 28°08' W 015°24'0 0.0
2018-Feb-18 11:55N 28°08' W 015°24'0 0.0
2018-Feb-18 11:30N 28°08' W 015°24'0 0.0
2018-Feb-18 11:00N 28°09' W 015°24'0 0.0
2018-Feb-18 10:28N 28°08' W 015°24'0 0.0
2018-Feb-18 09:57N 28°08' W 015°24'0 0.0
2018-Feb-18 09:29N 28°08' W 015°24'0 0.0
2018-Feb-18 08:50N 28°08' W 015°24'0 0.0
2018-Feb-18 08:29N 28°08' W 015°24'0 0.0
2018-Feb-18 07:55N 28°08' W 015°24'0 0.0
2018-Feb-18 07:24N 28°08' W 015°24'0 0.0
2018-Feb-18 06:54N 28°08' W 015°24'0 0.0
2018-Feb-18 06:30N 28°08' W 015°24'0 0.0
2018-Feb-18 05:57N 28°08' W 015°24'0 0.0
2018-Feb-18 05:27N 28°08' W 015°24'0 0.0
2018-Feb-18 04:56N 28°08' W 015°24'0 0.0
2018-Feb-18 04:29N 28°08' W 015°24'0 0.0
2018-Feb-18 04:00N 28°08' W 015°24'0 0.0
2018-Feb-18 03:21N 28°08' W 015°24'0 0.0
2018-Feb-18 02:58N 28°08' W 015°24'0 0.0
2018-Feb-18 02:16N 28°08' W 015°24'0 0.0
2018-Feb-18 01:58N 28°08' W 015°24'0 0.0
2018-Feb-18 01:23N 28°09' W 015°24'0 0.0
2018-Feb-18 00:59N 28°09' W 015°24'0 0.0
2018-Feb-18 00:24N 28°08' W 015°24'0 0.0
2018-Feb-17 23:58N 28°08' W 015°24'0 0.0
2018-Feb-17 23:30N 28°08' W 015°24'0 0.0
2018-Feb-17 23:00N 28°08' W 015°24'0 0.0
2018-Feb-17 22:30N 28°08' W 015°24'0 0.0
2018-Feb-17 21:58N 28°08' W 015°24'0 0.0
2018-Feb-17 21:17N 28°08' W 015°24'0 0.0
2018-Feb-17 20:53N 28°08' W 015°24'0 0.0
2018-Feb-17 20:26N 28°08' W 015°24'0 0.0
2018-Feb-17 19:55N 28°08' W 015°24'0 0.0
2018-Feb-17 19:25N 28°08' W 015°24'0 0.0
2018-Feb-17 18:54N 28°08' W 015°24'0 0.0
2018-Feb-17 18:30N 28°08' W 015°24'0 0.0
2018-Feb-17 17:54N 28°08' W 015°24'0 0.0
2018-Feb-17 17:24N 28°08' W 015°24'0 0.0
2018-Feb-17 16:50N 28°09' W 015°24'0 0.0
2018-Feb-17 16:24N 28°08' W 015°24'0 0.0
2018-Feb-17 15:58N 28°08' W 015°24'0 0.0
2018-Feb-17 15:27N 28°08' W 015°24'0 0.0
2018-Feb-17 14:57N 28°09' W 015°24'0 0.0
2018-Feb-17 14:27N 28°09' W 015°24'0 0.0
2018-Feb-17 13:57N 28°09' W 015°24'0 0.0
2018-Feb-17 13:27N 28°09' W 015°24'0 0.0
2018-Feb-17 13:00N 28°09' W 015°24'0 0.0
2018-Feb-17 12:19N 28°08' W 015°24'0 0.0
2018-Feb-17 11:58N 28°08' W 015°24'0 0.0
2018-Feb-17 11:28N 28°08' W 015°24'0 0.0
2018-Feb-17 11:00N 28°09' W 015°24'0 0.0
2018-Feb-17 10:25N 28°08' W 015°24'0 0.0
2018-Feb-17 09:58N 28°08' W 015°24'0 0.0
2018-Feb-17 09:26N 28°08' W 015°24'0 0.0
2018-Feb-17 08:53N 28°09' W 015°24'0 0.0
2018-Feb-17 08:23N 28°09' W 015°24'0 0.0
2018-Feb-17 07:53N 28°08' W 015°24'0 0.0
2018-Feb-17 07:26N 28°08' W 015°24'0 0.0
2018-Feb-17 06:56N 28°08' W 015°24'0 0.0
2018-Feb-17 06:26N 28°08' W 015°24'0 0.0
2018-Feb-17 06:00N 28°08' W 015°24'0 0.0
2018-Feb-17 05:24N 28°08' W 015°24'0 0.0
2018-Feb-17 05:00N 28°08' W 015°24'0 0.0
2018-Feb-17 04:28N 28°08' W 015°24'0 0.0
2018-Feb-17 03:58N 28°08' W 015°24'0 0.0
2018-Feb-17 03:28N 28°08' W 015°24'0 0.0
2018-Feb-17 02:49N 28°08' W 015°24'0 0.0
2018-Feb-17 02:19N 28°08' W 015°24'0 0.0
2018-Feb-17 01:58N 28°08' W 015°24'0 0.0
2018-Feb-17 01:26N 28°09' W 015°24'0 0.0
2018-Feb-17 01:00N 28°08' W 015°24'0 0.0
2018-Feb-17 00:30N 28°09' W 015°24'0 0.0
2018-Feb-17 00:00N 28°08' W 015°24'0 0.0
2018-Feb-16 23:25N 28°09' W 015°24'0 0.0
2018-Feb-16 22:51N 28°09' W 015°24'0 0.0
2018-Feb-16 22:25N 28°08' W 015°24'0 0.0
2018-Feb-16 21:54N 28°08' W 015°24'0 0.0
2018-Feb-16 21:26N 28°08' W 015°24'0 0.0
2018-Feb-16 21:00N 28°08' W 015°24'0 0.0
2018-Feb-16 20:28N 28°08' W 015°24'0 0.0
2018-Feb-16 19:58N 28°09' W 015°24'0 0.0
2018-Feb-16 19:28N 28°09' W 015°24'0 0.0
2018-Feb-16 18:59N 28°08' W 015°24'0 0.0
2018-Feb-16 18:30N 28°08' W 015°24'0 0.0
2018-Feb-16 17:53N 28°08' W 015°24'0 0.0
2018-Feb-16 17:26N 28°09' W 015°24'0 0.0
2018-Feb-16 16:56N 28°09' W 015°24'0 0.0
2018-Feb-16 16:23N 28°08' W 015°24'0 0.0
2018-Feb-16 16:00N 28°08' W 015°24'0 0.0
2018-Feb-16 15:26N 28°09' W 015°24'0 0.0
2018-Feb-16 14:55N 28°08' W 015°24'0 0.0
2018-Feb-16 14:21N 28°08' W 015°24'0 0.0
2018-Feb-16 13:58N 28°08' W 015°24'0 0.0
2018-Feb-16 13:19N 28°09' W 015°24'0 0.0
2018-Feb-16 12:58N 28°09' W 015°24'0 0.0
2018-Feb-16 12:30N 28°08' W 015°24'0 0.0
2018-Feb-16 11:59N 28°08' W 015°24'0 0.0
2018-Feb-16 11:29N 28°09' W 015°24'0 0.0
2018-Feb-16 10:54N 28°08' W 015°24'0 0.0
2018-Feb-16 10:22N 28°08' W 015°24'0 0.0
2018-Feb-16 09:49N 28°08' W 015°24'0 0.0
2018-Feb-16 09:22N 28°08' W 015°24'0 0.0
2018-Feb-16 08:59N 28°08' W 015°24'0 0.0
2018-Feb-16 08:29N 28°09' W 015°24'0 0.0
2018-Feb-16 07:50N 28°08' W 015°24'0 0.0
2018-Feb-16 07:25N 28°08' W 015°24'0 0.0
2018-Feb-16 06:55N 28°08' W 015°24'0 0.0
2018-Feb-16 06:24N 28°08' W 015°24'0 0.0
2018-Feb-16 05:53N 28°08' W 015°24'0 0.0
2018-Feb-16 05:18N 28°08' W 015°24'0 0.0
2018-Feb-16 04:49N 28°08' W 015°24'0 0.0
2018-Feb-16 04:29N 28°08' W 015°24'0 0.0
2018-Feb-16 03:52N 28°08' W 015°24'0 0.0
2018-Feb-16 03:22N 28°08' W 015°24'0 0.0
2018-Feb-16 02:59N 28°08' W 015°24'0 0.0
2018-Feb-16 02:29N 28°08' W 015°24'0 0.0
2018-Feb-16 01:58N 28°08' W 015°24'0 0.0
2018-Feb-16 01:23N 28°08' W 015°24'0 0.0
2018-Feb-16 00:51N 28°08' W 015°24'0 0.0
2018-Feb-16 00:24N 28°08' W 015°24'0 0.0
2018-Feb-15 23:54N 28°08' W 015°24'0 0.0
2018-Feb-15 23:10N 28°09' W 015°24'0 0.0
2018-Feb-15 22:57N 28°09' W 015°24'0 0.0
2018-Feb-15 22:19N 28°08' W 015°24'0 0.0
2018-Feb-15 21:58N 28°08' W 015°24'0 0.0
2018-Feb-15 21:22N 28°08' W 015°24'0 0.0
2018-Feb-15 20:52N 28°09' W 015°24'0 0.0
2018-Feb-15 20:22N 28°09' W 015°24'0 0.0
2018-Feb-15 19:57N 28°09' W 015°24'0 0.0
2018-Feb-15 19:28N 28°08' W 015°24'0 0.0
2018-Feb-15 18:58N 28°08' W 015°24'0 0.0
2018-Feb-15 18:30N 28°08' W 015°24'0 0.0
2018-Feb-15 18:00N 28°09' W 015°24'0 0.0
2018-Feb-15 17:26N 28°09' W 015°24'0 0.0
2018-Feb-15 16:58N 28°09' W 015°24'0 0.0
2018-Feb-15 16:28N 28°09' W 015°24'0 0.0
2018-Feb-15 15:49N 28°08' W 015°24'0 0.0
2018-Feb-15 15:25N 28°09' W 015°24'0 0.0
2018-Feb-15 15:00N 28°08' W 015°24'0 0.0
2018-Feb-15 14:29N 28°09' W 015°24'0 0.0
2018-Feb-15 13:57N 28°09' W 015°24'0 0.0
2018-Feb-15 13:27N 28°09' W 015°24'0 0.0
2018-Feb-15 12:47N 28°09' W 015°24'0 0.0
2018-Feb-15 12:22N 28°08' W 015°24'0 0.0
2018-Feb-15 11:56N 28°08' W 015°24'0 0.0
2018-Feb-15 11:27N 28°08' W 015°24'0 0.0
2018-Feb-15 10:59N 28°08' W 015°24'0 0.0
2018-Feb-15 10:25N 28°08' W 015°24'0 0.0
2018-Feb-15 09:54N 28°08' W 015°24'0 0.0
2018-Feb-15 09:29N 28°08' W 015°24'0 0.0
2018-Feb-15 08:53N 28°08' W 015°24'0 0.0
2018-Feb-15 08:30N 28°08' W 015°24'0 0.0
2018-Feb-15 08:00N 28°08' W 015°24'0 0.0
2018-Feb-15 07:23N 28°08' W 015°24'0 0.0
2018-Feb-15 06:52N 28°08' W 015°24'0 0.0
2018-Feb-15 06:23N 28°08' W 015°24'0 0.0
2018-Feb-15 05:58N 28°08' W 015°24'0 0.0
2018-Feb-15 05:29N 28°08' W 015°24'0 0.0
2018-Feb-15 04:59N 28°08' W 015°24'0 0.0
2018-Feb-15 04:21N 28°08' W 015°24'0 0.0
2018-Feb-15 03:57N 28°08' W 015°24'0 0.0
2018-Feb-15 03:29N 28°08' W 015°24'0 0.0
2018-Feb-15 03:00N 28°08' W 015°24'0 0.0
2018-Feb-15 02:27N 28°08' W 015°24'0 0.0
2018-Feb-15 02:00N 28°08' W 015°24'0 0.0
2018-Feb-15 01:24N 28°08' W 015°24'0 0.0
2018-Feb-15 00:59N 28°08' W 015°24'0 0.0
2018-Feb-15 00:17N 28°08' W 015°24'0 0.0
2018-Feb-15 00:00N 28°08' W 015°24'0 0.0
2018-Feb-14 23:27N 28°08' W 015°24'0 0.0
2018-Feb-14 22:47N 28°08' W 015°24'0 0.0
2018-Feb-14 22:29N 28°08' W 015°24'0 0.0
2018-Feb-14 21:51N 28°08' W 015°24'0 0.0
2018-Feb-14 21:29N 28°08' W 015°24'0 0.0
2018-Feb-14 20:49N 28°08' W 015°24'0 0.2
2018-Feb-14 20:30N 28°08' W 015°25'1 2.8
2018-Feb-14 20:00N 28°07' W 015°24'1 1.5
2018-Feb-14 19:30N 28°07' W 015°23'2 4.8
2018-Feb-14 19:00N 28°06' W 015°21'4 7.2
2018-Feb-14 18:31N 28°03' W 015°18'0 0.7
2018-Feb-14 18:00N 28°03' W 015°18'0 1.0
2018-Feb-14 17:30N 28°04' W 015°18'0 0.2
2018-Feb-14 17:00N 28°04' W 015°18'4 8.4
2018-Feb-14 16:31N 28°00' W 015°15'3 6.4
2018-Feb-14 16:00N 27°58' W 015°17'0 0.8
2018-Feb-14 15:31N 27°58' W 015°17'1 2.8
2018-Feb-14 15:00N 27°59' W 015°18'5 9.6
2018-Feb-14 14:31N 28°04' W 015°17'2 3.5
2018-Feb-14 14:00N 28°05' W 015°15'3 6.5
2018-Feb-14 13:31N 28°05' W 015°12'1 1.3
2018-Feb-14 13:01N 28°06' W 015°11'4 8.3
2018-Feb-14 12:31N 28°06' W 015°16'0 0.8
2018-Feb-14 12:01N 28°06' W 015°17'0 0.6
2018-Feb-14 11:30N 28°06' W 015°16'1 2.0
2018-Feb-14 11:00N 28°06' W 015°17'3 5.9
2018-Feb-14 10:30N 28°06' W 015°21'3 6.1
2018-Feb-14 10:00N 28°07' W 015°24'1 2.7
2018-Feb-14 09:28N 28°09' W 015°24'0 0.0
2018-Feb-14 08:56N 28°09' W 015°24'0 0.0
2018-Feb-14 08:30N 28°09' W 015°24'0 0.0
2018-Feb-14 07:58N 28°09' W 015°24'0 0.0
2018-Feb-14 07:28N 28°09' W 015°24'0 0.0
2018-Feb-14 06:59N 28°09' W 015°24'0 0.0
2018-Feb-14 06:25N 28°08' W 015°24'0 0.0
2018-Feb-14 05:55N 28°09' W 015°24'0 0.0
2018-Feb-14 05:25N 28°09' W 015°24'0 0.0
2018-Feb-14 04:50N 28°09' W 015°24'0 0.0
2018-Feb-14 04:23N 28°09' W 015°24'0 0.0
2018-Feb-14 03:53N 28°09' W 015°24'0 0.0
2018-Feb-14 03:24N 28°09' W 015°24'0 0.0
2018-Feb-14 03:00N 28°09' W 015°24'0 0.0
2018-Feb-14 02:25N 28°09' W 015°24'0 0.0
2018-Feb-14 01:58N 28°09' W 015°24'0 0.0
2018-Feb-14 01:28N 28°09' W 015°24'0 0.0
2018-Feb-14 00:57N 28°09' W 015°24'0 0.0
2018-Feb-14 00:28N 28°09' W 015°24'0 0.0
2018-Feb-13 23:56N 28°09' W 015°24'0 0.0
2018-Feb-13 23:26N 28°09' W 015°24'0 0.0
2018-Feb-13 22:56N 28°08' W 015°24'0 0.0
2018-Feb-13 22:29N 28°09' W 015°24'0 0.0
2018-Feb-13 21:58N 28°09' W 015°24'0 0.0
2018-Feb-13 21:25N 28°09' W 015°24'0 0.0
2018-Feb-13 20:53N 28°09' W 015°24'0 0.0
2018-Feb-13 20:23N 28°09' W 015°24'0 0.0
2018-Feb-13 20:00N 28°09' W 015°24'0 0.0
2018-Feb-13 19:25N 28°09' W 015°24'0 0.0
2018-Feb-13 18:48N 28°09' W 015°24'0 0.0
2018-Feb-13 18:30N 28°09' W 015°24'0 0.0
2018-Feb-13 18:00N 28°09' W 015°24'0 0.0
2018-Feb-13 17:21N 28°09' W 015°24'0 0.0
2018-Feb-13 16:54N 28°09' W 015°24'0 0.0
2018-Feb-13 16:25N 28°09' W 015°24'0 0.0
2018-Feb-13 16:00N 28°09' W 015°24'0 0.0
2018-Feb-13 15:29N 28°09' W 015°24'0 0.0
2018-Feb-13 14:59N 28°09' W 015°24'0 0.0
2018-Feb-13 14:26N 28°09' W 015°24'0 0.0
2018-Feb-13 13:58N 28°09' W 015°24'0 0.0
2018-Feb-13 13:28N 28°09' W 015°24'0 0.0
2018-Feb-13 12:57N 28°09' W 015°24'0 0.0
2018-Feb-13 12:30N 28°08' W 015°24'0 0.0
2018-Feb-13 11:53N 28°09' W 015°24'0 0.0
2018-Feb-13 11:23N 28°09' W 015°24'0 0.0
2018-Feb-13 10:59N 28°09' W 015°24'0 0.0
2018-Feb-13 10:29N 28°09' W 015°24'0 0.0
2018-Feb-13 09:58N 28°09' W 015°24'0 0.0
2018-Feb-13 09:29N 28°09' W 015°24'0 0.0
2018-Feb-13 08:53N 28°09' W 015°24'0 0.0
2018-Feb-13 08:30N 28°09' W 015°24'0 0.0
2018-Feb-13 08:00N 28°09' W 015°24'0 0.0
2018-Feb-13 07:30N 28°09' W 015°24'0 0.0
2018-Feb-13 06:58N 28°09' W 015°24'0 0.0
2018-Feb-13 06:30N 28°09' W 015°24'0 0.0
2018-Feb-13 05:58N 28°09' W 015°24'0 0.0
2018-Feb-13 05:28N 28°09' W 015°24'0 0.0
2018-Feb-13 04:59N 28°09' W 015°24'0 0.0
2018-Feb-13 04:28N 28°09' W 015°24'0 0.0
2018-Feb-13 03:56N 28°09' W 015°24'0 0.0
2018-Feb-13 03:29N 28°09' W 015°24'0 0.0
2018-Feb-13 02:54N 28°09' W 015°24'0 0.0
2018-Feb-13 02:29N 28°09' W 015°24'0 0.0
2018-Feb-13 01:58N 28°09' W 015°24'0 0.0
2018-Feb-13 01:30N 28°09' W 015°24'0 0.0
2018-Feb-13 01:00N 28°09' W 015°24'0 0.0
2018-Feb-13 00:28N 28°09' W 015°24'0 0.0
2018-Feb-12 23:58N 28°09' W 015°24'0 0.0
2018-Feb-12 23:30N 28°09' W 015°24'0 0.0
2018-Feb-12 22:58N 28°09' W 015°24'0 0.0
2018-Feb-12 22:28N 28°09' W 015°24'0 0.0
2018-Feb-12 21:58N 28°09' W 015°24'0 0.0
2018-Feb-12 21:26N 28°09' W 015°24'0 0.0
2018-Feb-12 21:00N 28°09' W 015°24'0 0.0
2018-Feb-12 20:27N 28°09' W 015°24'0 0.0
2018-Feb-12 19:59N 28°09' W 015°24'0 0.0
2018-Feb-12 19:30N 28°09' W 015°24'0 0.0
2018-Feb-12 19:00N 28°09' W 015°24'0 0.0
2018-Feb-12 18:30N 28°09' W 015°24'0 0.0
2018-Feb-12 17:58N 28°09' W 015°24'0 0.0
2018-Feb-12 17:29N 28°09' W 015°24'0 0.0
2018-Feb-12 16:54N 28°09' W 015°24'0 0.0
2018-Feb-12 16:28N 28°09' W 015°24'0 0.0
2018-Feb-12 16:00N 28°09' W 015°24'0 0.0
2018-Feb-12 15:29N 28°09' W 015°24'0 0.0
2018-Feb-12 14:59N 28°09' W 015°24'0 0.0
2018-Feb-12 14:30N 28°09' W 015°24'0 0.0
2018-Feb-12 13:53N 28°09' W 015°24'0 0.0
2018-Feb-12 13:28N 28°09' W 015°24'0 0.0
2018-Feb-12 13:00N 28°09' W 015°24'0 0.0
2018-Feb-12 12:30N 28°08' W 015°24'0 0.0
2018-Feb-12 12:00N 28°09' W 015°24'0 0.0
2018-Feb-12 11:29N 28°09' W 015°24'0 0.0
2018-Feb-12 10:55N 28°09' W 015°24'0 0.0
2018-Feb-12 10:29N 28°09' W 015°24'0 0.0
2018-Feb-12 09:58N 28°08' W 015°24'0 0.0
2018-Feb-12 09:29N 28°09' W 015°24'0 0.0
2018-Feb-12 08:49N 28°09' W 015°24'0 0.0
2018-Feb-12 08:28N 28°09' W 015°24'0 0.0
2018-Feb-12 07:53N 28°09' W 015°24'0 0.0
2018-Feb-12 07:22N 28°09' W 015°24'0 0.0
2018-Feb-12 06:52N 28°08' W 015°24'0 0.0
2018-Feb-12 06:14N 28°09' W 015°24'0 0.0
2018-Feb-12 05:57N 28°09' W 015°24'0 0.0
2018-Feb-12 05:28N 28°09' W 015°24'0 0.0
2018-Feb-12 04:59N 28°09' W 015°24'0 0.0
2018-Feb-12 04:24N 28°09' W 015°24'0 0.0
2018-Feb-12 03:59N 28°09' W 015°24'0 0.0
2018-Feb-12 03:29N 28°09' W 015°24'0 0.0
2018-Feb-12 02:54N 28°09' W 015°24'0 0.0
2018-Feb-12 02:24N 28°09' W 015°24'0 0.0
2018-Feb-12 01:55N 28°09' W 015°24'0 0.0
2018-Feb-12 01:18N 28°09' W 015°24'0 0.0
2018-Feb-12 01:00N 28°09' W 015°24'0 0.0
2018-Feb-12 00:30N 28°09' W 015°24'0 0.0
2018-Feb-11 23:59N 28°09' W 015°24'0 0.0
2018-Feb-11 23:30N 28°09' W 015°24'0 0.0
2018-Feb-11 22:54N 28°09' W 015°24'0 0.0
2018-Feb-11 22:26N 28°09' W 015°24'0 0.0
2018-Feb-11 21:59N 28°09' W 015°24'0 0.0
2018-Feb-11 21:24N 28°09' W 015°24'0 0.0
2018-Feb-11 20:54N 28°09' W 015°24'0 0.0
2018-Feb-11 20:25N 28°09' W 015°24'0 0.0
2018-Feb-11 20:00N 28°09' W 015°24'0 0.0
2018-Feb-11 19:29N 28°09' W 015°24'0 0.0
2018-Feb-11 18:59N 28°09' W 015°24'0 0.0
2018-Feb-11 18:29N 28°09' W 015°24'0 0.0
2018-Feb-11 17:55N 28°09' W 015°24'0 0.0
2018-Feb-11 17:30N 28°09' W 015°24'0 0.0
2018-Feb-11 17:00N 28°09' W 015°24'0 0.0
2018-Feb-11 16:30N 28°09' W 015°24'0 0.0
2018-Feb-11 16:00N 28°09' W 015°24'0 0.0
2018-Feb-11 15:16N 28°09' W 015°24'0 0.0
2018-Feb-11 14:59N 28°09' W 015°24'0 0.0
2018-Feb-11 14:29N 28°09' W 015°24'0 0.0
2018-Feb-11 13:50N 28°09' W 015°24'0 0.0
2018-Feb-11 13:20N 28°09' W 015°24'0 0.0
2018-Feb-11 12:49N 28°09' W 015°24'0 0.0
2018-Feb-11 12:24N 28°09' W 015°24'0 0.0
2018-Feb-11 11:55N 28°09' W 015°24'0 0.0
2018-Feb-11 11:22N 28°09' W 015°24'0 0.0
2018-Feb-11 10:50N 28°09' W 015°24'0 0.0
2018-Feb-11 10:27N 28°09' W 015°24'0 0.0
2018-Feb-11 09:56N 28°09' W 015°24'0 0.0
2018-Feb-11 09:26N 28°09' W 015°24'0 0.0
2018-Feb-11 08:56N 28°09' W 015°24'0 0.0
2018-Feb-11 08:26N 28°09' W 015°24'0 0.0
2018-Feb-11 07:56N 28°09' W 015°24'0 0.0
2018-Feb-11 07:26N 28°09' W 015°24'0 0.0
2018-Feb-11 06:35N 28°09' W 015°24'0 0.0
2018-Feb-11 06:25N 28°09' W 015°24'0 0.0
2018-Feb-11 06:00N 28°09' W 015°24'0 0.0
2018-Feb-11 05:23N 28°09' W 015°24'0 0.0
2018-Feb-11 04:53N 28°09' W 015°24'0 0.0
2018-Feb-11 04:23N 28°09' W 015°24'0 0.0
2018-Feb-11 03:53N 28°09' W 015°24'0 0.0
2018-Feb-11 03:12N 28°09' W 015°24'0 0.0
2018-Feb-11 02:57N 28°09' W 015°24'0 0.0
2018-Feb-11 02:27N 28°09' W 015°24'0 0.0
2018-Feb-11 01:56N 28°09' W 015°24'0 0.0
2018-Feb-11 01:27N 28°09' W 015°24'0 0.0
2018-Feb-11 00:57N 28°09' W 015°24'0 0.0
2018-Feb-11 00:30N 28°09' W 015°24'0 0.0
2018-Feb-11 00:00N 28°09' W 015°24'0 0.0
2018-Feb-10 23:29N 28°09' W 015°24'0 0.0
2018-Feb-10 22:49N 28°09' W 015°24'0 0.0
2018-Feb-10 22:19N 28°09' W 015°24'0 0.0
2018-Feb-10 21:39N 28°09' W 015°24'0 0.0
2018-Feb-10 21:21N 28°09' W 015°24'0 0.0
2018-Feb-10 20:59N 28°09' W 015°24'0 0.0
2018-Feb-10 20:27N 28°09' W 015°24'0 0.0
2018-Feb-10 19:57N 28°09' W 015°24'0 0.0
2018-Feb-10 19:25N 28°09' W 015°24'0 0.0
2018-Feb-10 19:00N 28°09' W 015°24'0 0.0
2018-Feb-10 18:29N 28°09' W 015°24'0 0.0
2018-Feb-10 18:00N 28°09' W 015°24'0 0.0
2018-Feb-10 17:28N 28°09' W 015°24'0 0.0
2018-Feb-10 17:00N 28°09' W 015°24'0 0.0
2018-Feb-10 16:25N 28°09' W 015°24'0 0.0
2018-Feb-10 15:58N 28°09' W 015°24'0 0.0
2018-Feb-10 15:19N 28°09' W 015°24'0 0.0
2018-Feb-10 15:00N 28°09' W 015°24'0 0.0
2018-Feb-10 14:27N 28°09' W 015°24'0 0.0
2018-Feb-10 13:52N 28°09' W 015°24'0 0.0
2018-Feb-10 13:22N 28°09' W 015°24'0 0.0
2018-Feb-10 12:48N 28°09' W 015°24'0 0.0
2018-Feb-10 12:29N 28°09' W 015°24'0 0.0
2018-Feb-10 11:59N 28°09' W 015°24'0 0.0
2018-Feb-10 11:27N 28°09' W 015°24'0 0.0
2018-Feb-10 11:00N 28°09' W 015°24'0 0.0
2018-Feb-10 10:28N 28°09' W 015°24'0 0.0
2018-Feb-10 09:55N 28°09' W 015°24'0 0.0
2018-Feb-10 09:30N 28°09' W 015°24'0 0.0
2018-Feb-10 09:00N 28°09' W 015°24'0 0.0
2018-Feb-10 08:29N 28°09' W 015°24'0 0.0
2018-Feb-10 07:55N 28°09' W 015°24'0 0.0
2018-Feb-10 07:22N 28°09' W 015°24'  

Dump ship's entire track history